HADR

Details ICAO HADR (DIR)
Name DIRE DAWA INTL
Region Ethiopia
Timezone Africa/Addis_Ababa (UTC+3.0)
Plans Departing 12
Arriving 6
Stats Elevation 3,829 ft / 1,167 m (AMSL)
Location 9.625044° 41.854148°
Runways 1
Magnetic Variation 1.877° E
Sunrise 2017-12-12 03:20:35 UTC / 2017-12-12 06:20:35 Local
Sunset 2017-12-12 14:54:48 UTC / 2017-12-12 17:54:48 Local
Advertisement - Login to hide

Runways

ID Width Length Bearing (true) Bearing (mag) Surface Threshold Offset Overrun Length
15 148 ft / 45 m 8,828 ft / 2,691 m 152.34° 150.46° Asphalt 0 ft / 0 m 0 ft / 0 m
33 148 ft / 45 m 8,828 ft / 2,691 m 332.34° 330.46° Asphalt 0 ft / 0 m 0 ft / 0 m

Map

Weather


0- 5 10 15 20 25 30 35+ Temperature / ° C

Clouds and Precipitation
Forecast for 2017-12-13 00:00 UTC. Updated an hour ago

Ground ~20,000 ft ~40,000 ft Winds

METAR

Not found

TAF

TAF HADR 120930Z 1212/1318 36005KT 9999 FEW030 FEW090 BECMG 1217/1220 04004KT C A V O K BECMG 1221/1304 27004KT C A V O K

Frequencies

Ground 121.90 MHz GND
Approach 120.10 MHz APP
Tower 118.30 MHz TWR
Approach 120.30 MHz APP
Warning: Do not use this data for real-world aviation or navigation. No guarantee of current accuracy is given.